This is the latest recevied weather packets stored in our database for station/object DJ0JJ-11. If no packets are shown the sender has not sent any weather packets the latest 10 day(s).
| Time | Temp. | Humidity | Pressure | Rain* | Wind** | Luminosity | Snow |
|---|---|---|---|---|---|---|---|
| 1777683521 | 9.44° C | 66% | 1023.9 hPa | - | - | - | - |
| 1777682620 | 11.67° C | 60% | 1023.7 hPa | - | - | - | - |
| 1777681720 | 11.67° C | 61% | 1023.9 hPa | - | - | - | - |
| 1777680820 | 11.67° C | 61% | 1023.8 hPa | - | - | - | - |
| 1777679920 | 12.22° C | 58% | 1023.8 hPa | - | - | - | - |
| 1777679020 | 11.11° C | 62% | 1023.9 hPa | - | - | - | - |
| 1777678120 | 13.33° C | 56% | 1023.8 hPa | - | - | - | - |
| 1777677220 | 13.33° C | 52% | 1023.7 hPa | - | - | - | - |
| 1777676319 | 12.78° C | 53% | 1023.7 hPa | - | - | - | - |
| 1777674520 | 12.78° C | 54% | 1023.8 hPa | - | - | - | - |
| 1777673619 | 12.78° C | 55% | 1023.8 hPa | - | - | - | - |
| 1777672719 | 14.44° C | 49% | 1023.7 hPa | - | - | - | - |
| 1777671819 | 15° C | 49% | 1023.7 hPa | - | - | - | - |
| 1777670918 | 14.44° C | 50% | 1023.7 hPa | - | - | - | - |
| 1777670018 | 16.67° C | 42% | 1023.6 hPa | - | - | - | - |
| 1777669118 | 16.67° C | 41% | 1023.5 hPa | - | - | - | - |
| 1777668218 | 17.22° C | 39% | 1023.5 hPa | - | - | - | - |
| 1777667318 | 17.22° C | 40% | 1023.6 hPa | - | - | - | - |
| 1777666418 | 17.78° C | 37% | 1023.4 hPa | - | - | - | - |
| 1777665518 | 18.33° C | 40% | 1023.4 hPa | - | - | - | - |
| 1777664617 | 18.33° C | 39% | 1023.4 hPa | - | - | - | - |
| 1777663717 | 20° C | 34% | 1023.1 hPa | - | - | - | - |
| 1777662817 | 20° C | 33% | 1023 hPa | - | - | - | - |
| 1777661917 | 20.56° C | 30% | 1023 hPa | - | - | - | - |
| 1777661017 | 21.11° C | 30% | 1022.8 hPa | - | - | - | - |
* Rain since midnight (hover to see other rain measurements)
** Current wind speed in m/s (hover to see current wind gust speed)